Latest Weather Observations for Cairns Racecourse

IDQ60801

Issued at 8:02 pm EST Saturday 1 October 2016 (issued every 30 minutes, with the page automatically refreshed every 10 minutes)

About weather observations | Map of weather stations | Latest weather observations for QLD | Other Formats
Station Details ID: 031222 Name: CAIRNS RACECOURSE Lat: -16.95 Lon: 145.75 Height: 4.1 m
Data from the previous 72 hours. | See also: Recent months at Cairns Racecourse
Date/Time
EST
Temp
°C
App
Temp
°C
Dew
Point
°C
Rel
Hum
%
Delta-T
°C
Wind Press
QNH
hPa
Press
MSL
hPa
Rain since
9am
mm
Dir  Spd
km/h
Gust
km/h
Spd
kts
Gust
kts
01/08:00pm 25.0 29.6 22.5 86 1.7 NW 2 6 1 3 - - -
01/07:30pm 26.0 29.8 22.7 82 2.2 NW 7 9 4 5 - - -
01/07:00pm 26.1 30.0 22.6 81 2.4 NW 6 9 3 5 - - -
01/06:30pm 26.2 29.9 22.5 80 2.5 NNW 7 13 4 7 - - -
01/06:00pm 26.7 30.4 22.3 77 3.0 N 6 11 3 6 - - -
01/05:30pm 27.1 30.4 21.8 73 3.5 N 7 13 4 7 - - -
01/05:00pm 26.9 30.5 22.3 76 3.1 N 7 13 4 7 - - -
01/04:30pm 27.2 31.0 22.8 77 3.0 NNE 7 15 4 8 - - -
01/04:00pm 27.3 30.7 22.7 76 3.1 N 9 13 5 7 - - -
01/03:30pm 27.5 30.6 22.2 73 3.6 NNE 9 15 5 8 - - -
01/03:00pm 27.8 30.0 21.8 70 4.0 NNE 13 20 7 11 - - -
01/02:30pm 28.4 31.0 22.6 71 3.9 N 13 20 7 11 - - -
01/01:30pm 29.3 32.0 22.8 68 4.4 NNE 13 24 7 13 - - 0.2
01/01:00pm 29.7 33.1 23.4 69 4.3 N 11 17 6 9 - - 0.2
01/12:30pm 29.5 33.8 23.7 71 4.0 NNW 7 13 4 7 - - 0.2
01/12:00pm 28.6 32.1 22.1 68 4.4 NE 7 11 4 6 - - 0.2
01/11:30am 28.3 31.9 22.1 69 4.2 SE 6 9 3 5 - - 0.2
01/11:00am 27.9 31.8 21.9 70 4.0 SSW 4 11 2 6 - - 0.0
01/10:30am 27.3 30.9 22.0 73 3.6 SSW 6 9 3 5 - - 0.0
01/10:00am 26.5 31.2 21.9 76 3.1 CALM 0 0 0 0 - - 0.0
01/09:30am 26.4 31.7 23.1 82 2.2 CALM 0 2 0 1 - - 0.0
01/09:00am 25.4 30.7 23.1 87 1.6 CALM 0 6 0 3 - - 33.4
01/08:30am 24.8 28.6 22.7 88 1.4 SSE 7 9 4 5 - - 33.4
01/08:00am 24.4 28.5 23.0 92 0.9 SSE 6 7 3 4 - - 33.4
01/07:30am 23.8 29.1 23.0 95 0.5 CALM 0 6 0 3 - - 33.4
01/07:00am 23.6 28.0 22.8 95 0.5 SSE 4 7 2 4 - - 33.4
01/06:30am 23.3 28.4 22.6 96 0.5 CALM 0 0 0 0 - - 33.4
01/06:00am 23.1 28.0 22.4 96 0.5 CALM 0 0 0 0 - - 33.4
01/05:30am 23.2 28.1 22.4 95 0.5 CALM 0 0 0 0 - - 33.4
01/05:00am 23.1 28.0 22.4 96 0.5 CALM 0 0 0 0 - - 33.4
01/04:30am 23.1 28.0 22.4 96 0.5 CALM 0 0 0 0 - - 33.4
01/04:00am 22.9 27.7 22.2 96 0.5 CALM 0 0 0 0 - - 33.4
01/03:30am 22.8 27.5 22.0 95 0.5 CALM 0 6 0 3 - - 33.4
01/03:00am 22.8 26.4 22.1 96 0.5 NNE 6 7 3 4 - - 33.4
01/02:30am 22.7 26.0 21.9 95 0.5 NNW 7 9 4 5 - - 33.0
01/02:00am 22.8 26.2 22.0 95 0.5 NW 7 11 4 6 - - 31.8
01/01:30am 23.3 27.0 22.5 95 0.5 WNW 7 11 4 6 - - 30.4
01/01:00am 23.5 27.7 22.5 94 0.7 W 4 9 2 5 - - 28.2
01/12:30am 25.4 29.6 23.1 87 1.6 ENE 6 15 3 8 - - 0.2
01/12:00am 25.7 30.3 23.2 86 1.7 ENE 4 9 2 5 - - 0.2
 
Date/Time
EST
Temp
°C
App
Temp
°C
Dew
Point
°C
Rel
Hum
%
Delta-T
°C
Wind Press
QNH
hPa
Press
MSL
hPa
Rain since
9am
mm
Dir  Spd
km/h
Gust
km/h
Spd
kts
Gust
kts
30/11:30pm 25.7 31.2 23.4 87 1.6 CALM 0 0 0 0 - - 0.2
30/11:00pm 25.9 30.1 23.2 85 1.8 NW 6 7 3 4 - - 0.2
30/10:30pm 26.0 30.3 23.3 85 1.8 NNW 6 11 3 6 - - 0.2
30/10:00pm 26.1 30.3 23.4 85 1.8 NNW 7 13 4 7 - - 0.2
30/09:30pm 25.9 31.2 23.0 84 2.0 CALM 0 0 0 0 - - 0.2
30/09:00pm 25.8 30.6 22.9 84 2.0 NW 2 9 1 5 - - 0.2
30/08:30pm 25.7 30.9 22.8 84 2.0 CALM 0 0 0 0 - - 0.2
30/08:00pm 25.8 30.9 22.7 83 2.1 CALM 0 0 0 0 - - 0.2
30/07:30pm 26.4 31.1 22.7 80 2.5 NW 2 6 1 3 - - 0.2
30/07:00pm 26.6 30.7 22.9 80 2.5 NW 6 9 3 5 - - 0.2
30/06:30pm 26.7 30.2 22.8 79 2.6 NNW 9 17 5 9 - - 0.2
30/06:00pm 27.0 30.7 22.6 77 3.0 N 7 13 4 7 - - 0.2
30/05:30pm 27.3 31.1 22.7 76 3.1 N 7 15 4 8 - - 0.2
30/05:00pm 27.6 31.3 22.5 74 3.4 N 7 15 4 8 - - 0.2
30/04:30pm 27.8 31.1 22.5 73 3.6 NNE 9 19 5 10 - - 0.2
30/04:00pm 28.0 30.9 22.5 72 3.7 N 11 19 6 10 - - 0.2
30/03:30pm 28.1 30.8 22.1 70 4.0 N 11 19 6 10 - - 0.0
30/03:00pm 29.0 32.4 22.0 66 4.7 NNW 7 13 4 7 - - 0.0
30/02:30pm 29.6 32.6 22.6 66 4.8 NNE 11 20 6 11 - - 0.0
30/02:00pm 29.4 32.4 22.6 67 4.6 NE 11 22 6 12 - - 0.0
30/01:30pm 27.8 30.7 22.5 73 3.6 NNE 11 20 6 11 - - 0.0
30/01:00pm 28.6 30.8 21.9 67 4.5 NNE 13 22 7 12 - - 0.0
30/12:30pm 28.6 31.3 22.1 68 4.4 NNE 11 19 6 10 - - 0.0
30/12:00pm 28.8 31.1 22.1 67 4.5 NE 13 24 7 13 - - 0.0
30/11:30am 30.7 33.0 22.0 59 5.9 NE 13 26 7 14 - - 0.0
30/11:00am 30.8 33.9 22.9 62 5.4 N 11 19 6 10 - - 0.0
30/10:30am 29.9 32.9 22.6 65 5.0 N 11 20 6 11 - - 0.0
30/10:00am 29.7 32.9 22.4 65 5.0 NNE 9 17 5 9 - - 0.0
30/09:30am 29.4 32.7 22.6 67 4.6 E 9 15 5 8 - - 0.0
30/09:00am 28.7 33.7 23.8 75 3.4 SE 4 9 2 5 - - 0.4
30/08:30am 27.1 31.7 22.5 76 3.1 SSE 2 7 1 4 - - 0.4
30/08:00am 26.1 31.0 23.0 83 2.1 S 2 7 1 4 - - 0.4
30/07:30am 24.8 30.3 23.4 92 1.0 CALM 0 0 0 0 - - 0.4
30/07:00am 24.0 29.3 23.0 94 0.7 CALM 0 0 0 0 - - 0.4
30/06:30am 23.3 28.3 22.5 95 0.5 CALM 0 0 0 0 - - 0.4
30/06:00am 23.2 28.1 22.4 95 0.5 CALM 0 0 0 0 - - 0.4
30/05:30am 23.3 28.2 22.3 94 0.7 CALM 0 0 0 0 - - 0.4
30/05:00am 23.4 28.1 22.0 92 0.9 CALM 0 0 0 0 - - 0.4
30/04:30am 24.0 29.1 22.6 92 0.9 CALM 0 0 0 0 - - 0.4
30/04:00am 24.3 29.5 22.9 92 0.9 CALM 0 0 0 0 - - 0.4
30/03:30am 24.5 29.7 22.8 90 1.1 CALM 0 0 0 0 - - 0.4
30/03:00am 24.6 29.8 22.8 90 1.2 CALM 0 0 0 0 - - 0.4
30/02:30am 24.7 29.9 22.9 90 1.2 CALM 0 7 0 4 - - 0.4
30/02:00am 25.1 30.0 22.4 85 1.8 CALM 0 0 0 0 - - 0.2
30/01:30am 25.9 29.5 22.0 79 2.6 WNW 6 9 3 5 - - 0.0
30/01:00am 26.0 29.5 22.1 79 2.6 NW 7 11 4 6 - - 0.0
30/12:30am 26.1 29.5 22.0 78 2.7 NW 7 11 4 6 - - 0.0
30/12:00am 26.2 29.1 21.8 77 2.9 NNW 9 15 5 8 - - 0.0
 
Date/Time
EST
Temp
°C
App
Temp
°C
Dew
Point
°C
Rel
Hum
%
Delta-T
°C
Wind Press
QNH
hPa
Press
MSL
hPa
Rain since
9am
mm
Dir  Spd
km/h
Gust
km/h
Spd
kts
Gust
kts
29/11:30pm 26.2 29.4 21.6 76 3.1 NW 7 13 4 7 - - 0.0
29/11:00pm 26.4 29.8 21.6 75 3.2 NNW 6 11 3 6 - - 0.0
29/10:30pm 26.5 29.3 21.5 74 3.3 NNW 9 13 5 7 - - 0.0
29/10:00pm 26.4 29.8 21.6 75 3.2 NNW 6 9 3 5 - - 0.0
29/09:30pm 26.5 29.6 21.5 74 3.3 NNW 7 13 4 7 - - 0.0
29/09:00pm 26.5 29.3 21.5 74 3.3 NNW 9 15 5 8 - - 0.0
29/08:30pm 26.5 29.2 21.3 73 3.4 NNW 9 15 5 8 - - 0.0
29/08:00pm 26.5 29.2 21.3 73 3.4 NNW 9 13 5 7 - - 0.0
29/07:30pm 26.6 29.3 21.4 73 3.5 NNW 9 15 5 8 - - 0.0
29/07:00pm 26.6 29.9 21.8 75 3.2 NW 7 15 4 8 - - 0.0
29/06:30pm 26.7 29.9 21.7 74 3.3 NNW 7 15 4 8 - - 0.0
29/06:00pm 26.8 29.7 21.8 74 3.3 NNW 9 15 5 8 - - 0.0
29/05:30pm 27.0 29.3 21.3 71 3.8 NNW 11 20 6 11 - - 0.0
29/05:00pm 27.1 29.8 21.4 71 3.8 N 9 19 5 10 - - 0.0
29/04:30pm 27.5 29.9 21.5 70 4.0 N 11 20 6 11 - - 0.0
29/04:00pm 27.5 29.9 21.5 70 4.0 NNW 11 22 6 12 - - 0.0
29/03:30pm 28.4 30.8 22.2 69 4.2 N 13 22 7 12 - - 0.0
29/03:00pm 28.4 30.3 21.4 66 4.7 N 13 24 7 13 - - 0.0
29/02:30pm 29.0 31.1 21.7 64 4.9 NNE 13 22 7 12 - - 0.0
29/02:00pm 29.5 31.4 22.0 64 5.1 N 15 24 8 13 - - 0.0
29/01:30pm 29.6 31.5 22.1 64 5.1 N 15 28 8 15 - - 0.0
29/01:00pm 29.5 31.2 21.7 63 5.2 NNE 15 26 8 14 - - 0.0
29/12:30pm 28.9 30.8 21.4 64 5.0 NNE 13 26 7 14 - - 0.0
29/12:00pm 28.6 30.4 21.9 67 4.5 NNE 15 26 8 14 - - 0.0
29/11:30am 28.1 30.0 21.4 67 4.5 N 13 20 7 11 - - 0.0
29/11:00am 28.9 31.3 22.2 67 4.5 N 13 20 7 11 - - 0.0
29/10:30am 28.1 30.5 21.6 68 4.3 NNW 11 20 6 11 - - 0.0
29/10:00am 27.3 30.1 21.6 71 3.8 N 9 15 5 8 - - 0.0
29/09:30am 27.1 29.8 21.4 71 3.8 N 9 13 5 7 - - 0.0
29/09:00am 26.7 29.5 21.5 73 3.5 N 9 19 5 10 - - 0.0
29/08:30am 26.7 30.1 21.7 74 3.3 N 6 9 3 5 - - 0.0
29/08:00am 26.0 30.7 21.9 78 2.7 CALM 0 0 0 0 - - 0.0
29/07:30am 25.0 28.5 21.9 83 2.1 S 6 7 3 4 - - 0.0
29/07:00am 24.2 27.3 21.5 85 1.8 S 7 9 4 5 - - 0.0
29/06:30am 23.8 28.0 21.7 88 1.4 SE 2 7 1 4 - - 0.0
29/06:00am 23.4 27.8 21.3 88 1.4 CALM 0 7 0 4 - - 0.0
29/05:30am 23.8 28.5 21.9 89 1.3 CALM 0 0 0 0 - - 0.0
29/05:00am 23.9 28.5 21.8 88 1.4 CALM 0 0 0 0 - - 0.0
29/04:30am 24.0 28.8 22.1 89 1.3 CALM 0 0 0 0 - - 0.0
29/04:00am 23.9 27.4 21.8 88 1.4 SSE 6 9 3 5 - - 0.0
29/03:30am 23.7 28.2 21.6 88 1.4 CALM 0 0 0 0 - - 0.0
29/03:00am 23.6 27.8 21.7 89 1.3 WNW 2 7 1 4 - - 0.0
29/02:30am 23.3 27.2 21.2 88 1.4 WNW 2 6 1 3 - - 0.0
29/02:00am 23.6 26.5 21.1 86 1.6 W 7 9 4 5 - - 0.0
29/01:30am 24.3 27.5 21.2 83 2.0 WNW 6 7 3 4 - - 0.0
29/01:00am 25.1 28.2 21.4 80 2.4 NW 7 9 4 5 - - 0.0
29/12:30am 25.2 28.4 21.7 81 2.3 NW 7 13 4 7 - - 0.0
29/12:00am 24.5 29.3 22.2 87 1.5 CALM 0 0 0 0 - - 0.0
 
Date/Time
EST
Temp
°C
App
Temp
°C
Dew
Point
°C
Rel
Hum
%
Delta-T
°C
Wind Press
QNH
hPa
Press
MSL
hPa
Rain since
9am
mm
Dir  Spd
km/h
Gust
km/h
Spd
kts
Gust
kts
28/11:30pm 24.5 29.1 21.8 85 1.8 CALM 0 0 0 0 - - 0.0
28/11:00pm 24.2 27.6 21.7 86 1.7 SSW 6 7 3 4 - - 0.0
28/10:30pm 23.6 28.1 21.5 88 1.4 CALM 0 0 0 0 - - 0.0
28/10:00pm 23.4 27.6 20.9 86 1.6 CALM 0 0 0 0 - - 0.0
28/09:30pm 23.9 28.2 21.2 85 1.8 CALM 0 0 0 0 - - 0.0
28/09:00pm 24.2 28.4 20.9 82 2.2 CALM 0 0 0 0 - - 0.0
28/08:30pm 25.0 28.5 21.1 79 2.6 SW 4 7 2 4 - - 0.0

Other Formats:

Comma delimited format used in spreadsheet applications
http://www.bom.gov.au/fwo/IDQ60801/IDQ60801.94288.axf

JavaScript Object Notation format (JSON) in row-major order
http://www.bom.gov.au/fwo/IDQ60801/IDQ60801.94288.json